createdAt,value
2022-11-24T00:01:47.428Z,97919.05
2022-11-24T00:04:16.441Z,97919.39
2022-11-24T00:06:44.995Z,97921.91
2022-11-24T00:09:13.734Z,97926.27
2022-11-24T00:11:42.567Z,97926.85
2022-11-24T00:14:13.569Z,97930.10
2022-11-24T00:16:42.208Z,97930.51
2022-11-24T00:19:14.602Z,97933.00
2022-11-24T00:21:46.460Z,97935.58
2022-11-24T00:24:15.317Z,97936.59
2022-11-24T00:26:43.916Z,97936.41
2022-11-24T00:29:13.010Z,97940.65
2022-11-24T00:31:43.422Z,97944.19
2022-11-24T00:34:14.659Z,97942.33
2022-11-24T00:36:43.732Z,97941.33
2022-11-24T00:39:14.707Z,97937.45
2022-11-24T00:41:44.152Z,97938.83
2022-11-24T00:44:12.932Z,97938.02
2022-11-24T00:46:42.383Z,97937.38
2022-11-24T00:49:11.054Z,97940.04
2022-11-24T00:51:39.982Z,97941.42
2022-11-24T00:54:10.349Z,97942.64
2022-11-24T00:56:38.900Z,97942.22
2022-11-24T00:59:07.927Z,97944.07
2022-11-24T01:01:36.658Z,97942.85
2022-11-24T01:04:06.125Z,97941.98
2022-11-24T01:06:36.692Z,97939.06
2022-11-24T01:09:05.700Z,97942.22
2022-11-24T01:11:55.004Z,97942.03
2022-11-24T01:14:25.618Z,97942.92
2022-11-24T01:16:55.099Z,97943.05
2022-11-24T01:19:24.539Z,97938.39
2022-11-24T01:21:53.961Z,97939.44
2022-11-24T01:24:22.751Z,97937.85
2022-11-24T01:26:51.288Z,97933.46
2022-11-24T01:29:20.279Z,97930.21
2022-11-24T01:31:49.039Z,97933.54
2022-11-24T01:34:17.756Z,97935.79
2022-11-24T01:36:46.552Z,97938.33
2022-11-24T01:39:15.407Z,97938.27
2022-11-24T01:41:43.935Z,97938.98
2022-11-24T01:44:30.784Z,97941.66
2022-11-24T01:47:22.037Z,97941.79
2022-11-24T01:49:57.767Z,97945.44
2022-11-24T01:52:33.346Z,97942.09
2022-11-24T01:55:07.676Z,97949.56
2022-11-24T01:57:50.452Z,97951.75
2022-11-24T02:00:19.316Z,97956.70
2022-11-24T02:02:48.292Z,97958.98
2022-11-24T02:05:58.896Z,97959.82
2022-11-24T02:08:39.728Z,97955.34
2022-11-24T02:11:08.626Z,97953.29
2022-11-24T02:13:40.160Z,97952.80
2022-11-24T02:16:13.204Z,97953.70
2022-11-24T02:18:43.209Z,97953.31
2022-11-24T02:21:14.001Z,97954.67
2022-11-24T02:23:47.789Z,97956.70
2022-11-24T02:26:41.785Z,97954.55
2022-11-24T02:29:12.409Z,97949.18
2022-11-24T02:31:48.794Z,97949.98
2022-11-24T02:34:17.719Z,97954.05
2022-11-24T02:36:46.328Z,97953.36
2022-11-24T02:39:16.023Z,97953.41
2022-11-24T02:41:53.456Z,97955.63
2022-11-24T02:44:25.579Z,97958.84
2022-11-24T02:47:09.985Z,97963.27
2022-11-24T02:49:39.611Z,97960.28
2022-11-24T02:52:08.340Z,97961.61
2022-11-24T02:54:37.034Z,97957.14
2022-11-24T02:57:06.030Z,97955.09
2022-11-24T02:59:34.626Z,97952.10
2022-11-24T03:02:03.311Z,97957.00
2022-11-24T03:04:32.736Z,97954.19
2022-11-24T03:07:01.836Z,97955.36
2022-11-24T03:09:30.910Z,97951.73
2022-11-24T03:12:00.340Z,97949.29
2022-11-24T03:14:28.915Z,97947.21
2022-11-24T03:16:57.550Z,97946.89
2022-11-24T03:19:26.598Z,97947.02
2022-11-24T03:21:55.653Z,97946.00
2022-11-24T03:24:24.755Z,97947.45
2022-11-24T03:26:53.399Z,97946.14
2022-11-24T03:29:23.041Z,97946.55
2022-11-24T03:31:51.583Z,97945.30
2022-11-24T03:34:20.581Z,97946.38
2022-11-24T03:36:49.397Z,97946.70
2022-11-24T03:39:18.022Z,97946.73
2022-11-24T03:41:47.043Z,97951.00
2022-11-24T03:44:15.644Z,97949.98
2022-11-24T03:46:44.305Z,97955.54
2022-11-24T03:49:13.117Z,97954.20
2022-11-24T03:51:42.051Z,97957.35
2022-11-24T03:54:10.681Z,97954.96
2022-11-24T03:56:39.570Z,97958.28
2022-11-24T03:59:09.014Z,97960.27
2022-11-24T04:01:37.695Z,97967.69
2022-11-24T04:04:06.557Z,97969.78
2022-11-24T04:06:35.411Z,97963.98
2022-11-24T04:09:04.876Z,97968.86
2022-11-24T04:11:52.699Z,97966.62
2022-11-24T04:14:21.738Z,97970.96
2022-11-24T04:16:50.278Z,97973.34
2022-11-24T04:19:19.265Z,97974.30
2022-11-24T04:21:48.188Z,97971.69
2022-11-24T04:24:17.189Z,97975.67
2022-11-24T04:26:47.069Z,97980.30
2022-11-24T04:29:15.656Z,97982.83
2022-11-24T04:31:44.674Z,97983.23
2022-11-24T04:34:13.635Z,97988.75
2022-11-24T04:36:42.115Z,97990.73
2022-11-24T04:39:23.809Z,97994.10
2022-11-24T04:41:54.543Z,97996.30
2022-11-24T04:44:23.416Z,97998.96
2022-11-24T04:46:52.103Z,98001.52
2022-11-24T04:49:21.110Z,98001.63
2022-11-24T04:51:49.987Z,98004.63
2022-11-24T04:54:18.855Z,98009.38
2022-11-24T04:56:51.607Z,98012.69
2022-11-24T04:59:20.973Z,98015.30
2022-11-24T05:01:50.057Z,98019.08
2022-11-24T05:04:20.982Z,98022.21
2022-11-24T05:06:49.613Z,98025.94
2022-11-24T05:09:18.621Z,98033.65
2022-11-24T05:11:47.337Z,98039.36
2022-11-24T05:14:16.264Z,98040.19
2022-11-24T05:16:45.177Z,98041.29
2022-11-24T05:19:14.791Z,98049.27
2022-11-24T05:21:43.443Z,98053.11
2022-11-24T05:24:12.278Z,98048.66
2022-11-24T05:26:41.255Z,98050.97
2022-11-24T05:29:10.299Z,98054.95
2022-11-24T05:31:39.266Z,98060.21
2022-11-24T05:34:08.662Z,98058.90
2022-11-24T05:36:56.583Z,98060.45
2022-11-24T05:39:25.632Z,98060.23
2022-11-24T05:41:55.183Z,98057.67
2022-11-24T05:44:23.958Z,98061.15
2022-11-24T05:46:52.956Z,98069.85
2022-11-24T05:49:21.532Z,98080.02
2022-11-24T05:51:50.163Z,98086.70
2022-11-24T05:54:19.124Z,98087.69
2022-11-24T05:56:47.713Z,98087.34
2022-11-24T05:59:16.376Z,98085.97
2022-11-24T06:01:45.099Z,98088.23
2022-11-24T06:04:14.074Z,98098.05
2022-11-24T06:06:43.214Z,98104.86
2022-11-24T06:09:12.180Z,98112.78
2022-11-24T06:11:40.798Z,98115.73
2022-11-24T06:14:11.469Z,98114.45
2022-11-24T06:16:40.771Z,98111.62
2022-11-24T06:19:11.063Z,98113.70
2022-11-24T06:21:39.767Z,98115.27
2022-11-24T06:24:09.008Z,98117.41
2022-11-24T06:26:37.665Z,98121.11
2022-11-24T06:29:06.596Z,98124.99
2022-11-24T06:31:36.318Z,98125.73
2022-11-24T06:34:11.862Z,98131.80
2022-11-24T06:36:41.043Z,98137.43
2022-11-24T06:39:10.392Z,98142.76
2022-11-24T06:41:39.086Z,98145.52
2022-11-24T06:44:08.332Z,98148.14
2022-11-24T06:46:37.417Z,98147.46
2022-11-24T06:49:06.200Z,98146.98
2022-11-24T06:51:35.213Z,98148.65
2022-11-24T06:54:07.738Z,98151.75
2022-11-24T06:56:37.310Z,98147.98
2022-11-24T06:59:06.261Z,98154.87
2022-11-24T07:01:34.979Z,98159.16
2022-11-24T07:04:05.091Z,98163.60
2022-11-24T07:06:33.827Z,98168.67
2022-11-24T07:09:02.528Z,98172.29
2022-11-24T07:11:31.401Z,98169.95
2022-11-24T07:14:00.480Z,98172.66
2022-11-24T07:16:29.778Z,98175.61
2022-11-24T07:18:59.664Z,98174.30
2022-11-24T07:21:30.985Z,98178.73
2022-11-24T07:23:59.681Z,98185.39
2022-11-24T07:26:28.696Z,98187.31
2022-11-24T07:28:57.609Z,98187.73
2022-11-24T07:31:26.409Z,98192.45
2022-11-24T07:33:57.035Z,98193.23
2022-11-24T07:36:25.587Z,98196.59
2022-11-24T07:38:54.264Z,98195.74
2022-11-24T07:41:23.088Z,98201.34
2022-11-24T07:44:11.467Z,98201.83
2022-11-24T07:50:20.245Z,98205.88
2022-11-24T07:52:48.863Z,98208.25
2022-11-24T07:55:17.499Z,98210.34
2022-11-24T07:57:46.963Z,98211.40
2022-11-24T08:00:15.719Z,98220.48
2022-11-24T08:02:45.548Z,98223.22
2022-11-24T08:05:14.571Z,98227.05
2022-11-24T08:07:43.247Z,98230.84
2022-11-24T08:10:12.147Z,98233.60
2022-11-24T08:12:43.753Z,98233.45
2022-11-24T08:15:12.551Z,98240.83
2022-11-24T08:17:41.213Z,98241.76
2022-11-24T08:20:10.874Z,98241.95
2022-11-24T08:22:39.545Z,98241.73
2022-11-24T08:25:08.596Z,98238.39
2022-11-24T08:27:37.840Z,98239.59
2022-11-24T08:30:07.531Z,98236.19
2022-11-24T08:32:36.177Z,98236.08
2022-11-24T08:35:13.926Z,98234.27
2022-11-24T08:37:43.437Z,98238.20
2022-11-24T08:40:13.170Z,98239.05
2022-11-24T08:42:41.921Z,98243.27
2022-11-24T08:45:20.547Z,98244.58
2022-11-24T08:47:57.882Z,98243.49
2022-11-24T08:50:26.563Z,98239.27
2022-11-24T08:52:55.169Z,98242.55
2022-11-24T08:55:24.243Z,98243.23
2022-11-24T08:57:55.147Z,98241.16
2022-11-24T09:00:40.878Z,98244.67
2022-11-24T09:03:13.150Z,98245.45
2022-11-24T09:05:57.761Z,98247.77
2022-11-24T09:08:26.519Z,98247.52
2022-11-24T09:11:00.453Z,98248.46
2022-11-24T09:13:29.714Z,98253.23
2022-11-24T09:16:04.751Z,98250.52
2022-11-24T09:18:34.493Z,98252.97
2022-11-24T09:21:22.288Z,98252.13
2022-11-24T09:23:53.491Z,98250.77
2022-11-24T09:26:25.376Z,98254.31
2022-11-24T09:28:55.396Z,98255.33
2022-11-24T09:31:25.755Z,98259.04
2022-11-24T09:33:55.966Z,98260.30
2022-11-24T09:36:25.675Z,98262.37
2022-11-24T09:38:54.389Z,98264.63
2022-11-24T09:41:54.428Z,98263.61
2022-11-24T09:45:11.501Z,98261.57
2022-11-24T09:47:54.714Z,98263.77
2022-11-24T09:50:27.011Z,98260.00
2022-11-24T09:53:20.221Z,98264.27
2022-11-24T09:55:59.200Z,98262.04
2022-11-24T09:58:46.328Z,98262.46
2022-11-24T10:01:37.477Z,98261.89
2022-11-24T10:04:19.985Z,98264.20
2022-11-24T10:06:59.013Z,98263.77
2022-11-24T10:09:45.367Z,98265.95
2022-11-24T10:12:23.288Z,98266.60
2022-11-24T10:15:13.082Z,98266.10
2022-11-24T10:18:04.623Z,98267.52
2022-11-24T10:20:56.184Z,98265.17
2022-11-24T10:24:09.264Z,98267.58
2022-11-24T10:26:39.516Z,98269.41
2022-11-24T10:29:28.420Z,98271.06
2022-11-24T10:31:58.512Z,98271.64
2022-11-24T10:34:39.962Z,98273.16
2022-11-24T10:37:17.708Z,98273.05
2022-11-24T10:39:54.781Z,98271.79
2022-11-24T10:42:32.046Z,98271.56
2022-11-24T10:45:12.944Z,98275.07
2022-11-24T10:47:43.429Z,98272.73
2022-11-24T10:50:27.410Z,98272.79
2022-11-24T10:53:05.060Z,98276.57
2022-11-24T10:55:55.868Z,98276.13
2022-11-24T10:58:37.730Z,98275.15
2022-11-24T11:01:13.340Z,98280.31
2022-11-24T11:03:51.808Z,98279.27
2022-11-24T11:06:31.632Z,98282.73
2022-11-24T11:09:06.729Z,98285.20
2022-11-24T11:11:37.276Z,98280.11
2022-11-24T11:14:08.853Z,98275.50
2022-11-24T11:16:42.352Z,98270.70
2022-11-24T11:19:58.505Z,98268.33
2022-11-24T11:22:30.994Z,98270.44
2022-11-24T11:25:07.890Z,98270.52
2022-11-24T11:27:37.452Z,98270.45
2022-11-24T11:36:12.066Z,98273.66
2022-11-24T11:38:43.567Z,98277.08
2022-11-24T11:41:20.915Z,98273.25
2022-11-24T11:43:57.371Z,98276.31
2022-11-24T11:46:30.859Z,98280.54
2022-11-24T11:49:00.090Z,98284.35
2022-11-24T11:51:53.407Z,98287.11
2022-11-24T11:54:36.976Z,98290.60
2022-11-24T11:57:16.736Z,98292.01
2022-11-24T11:59:50.163Z,98290.15
2022-11-24T12:02:22.231Z,98287.77
2022-11-24T12:05:05.653Z,98294.16
2022-11-24T12:07:40.601Z,98293.13
2022-11-24T12:10:12.356Z,98291.24
2022-11-24T12:13:18.927Z,98292.61
2022-11-24T12:15:53.104Z,98296.04
2022-11-24T12:18:57.534Z,98300.16
2022-11-24T12:21:55.716Z,98298.93
2022-11-24T12:24:52.744Z,98301.88
2022-11-24T12:27:42.436Z,98299.26
2022-11-24T12:30:17.560Z,98301.98
2022-11-24T12:32:55.666Z,98305.77
2022-11-24T12:35:43.338Z,98301.23
2022-11-24T12:38:43.390Z,98300.73
2022-11-24T12:41:44.208Z,98297.61
2022-11-24T12:44:31.735Z,98294.23
2022-11-24T12:47:35.994Z,98295.59
2022-11-24T12:50:16.769Z,98292.52
2022-11-24T12:52:58.633Z,98293.98
2022-11-24T12:55:32.487Z,98297.77
2022-11-24T12:58:23.436Z,98300.10
2022-11-24T13:01:26.165Z,98300.20
2022-11-24T13:04:07.945Z,98303.55
2022-11-24T13:06:52.823Z,98306.69
2022-11-24T13:09:21.518Z,98306.68
2022-11-24T13:11:52.584Z,98308.02
2022-11-24T13:14:24.037Z,98310.74
2022-11-24T13:17:29.285Z,98311.91
2022-11-24T13:19:48.988Z,98312.58
2022-11-24T13:22:24.725Z,98317.17
2022-11-24T13:25:31.046Z,98313.52
2022-11-24T13:28:02.083Z,98315.20
2022-11-24T13:30:34.046Z,98319.61
2022-11-24T13:33:16.435Z,98321.98
2022-11-24T13:36:08.344Z,98321.80
2022-11-24T13:38:51.424Z,98321.12
2022-11-24T13:41:33.129Z,98325.83
2022-11-24T13:44:17.345Z,98329.52
2022-11-24T13:47:06.283Z,98329.38
2022-11-24T13:49:41.458Z,98329.88
2022-11-24T13:52:45.166Z,98327.42
2022-11-24T13:55:14.050Z,98327.21
2022-11-24T13:57:46.049Z,98324.79
2022-11-24T14:00:34.518Z,98322.67
2022-11-24T14:03:18.575Z,98325.60
2022-11-24T14:05:52.607Z,98327.17
2022-11-24T14:08:28.036Z,98325.27
2022-11-24T14:10:59.139Z,98332.52
2022-11-24T14:13:31.060Z,98335.55
2022-11-24T14:16:03.237Z,98337.88
2022-11-24T14:18:33.952Z,98343.29
2022-11-24T14:21:23.316Z,98341.14
2022-11-24T14:24:02.020Z,98339.86
2022-11-24T14:26:37.580Z,98342.23
2022-11-24T14:29:22.244Z,98340.86
2022-11-24T14:31:59.144Z,98341.23
2022-11-24T14:34:32.350Z,98342.95
2022-11-24T14:37:03.050Z,98344.35
2022-11-24T14:39:41.970Z,98348.27
2022-11-24T14:42:18.813Z,98348.22
2022-11-24T14:44:59.297Z,98351.71
2022-11-24T14:47:32.461Z,98352.09
2022-11-24T14:50:11.892Z,98350.98
2022-11-24T14:52:57.339Z,98352.48
2022-11-24T14:55:35.574Z,98352.95
2022-11-24T14:58:30.854Z,98357.89
2022-11-24T15:01:22.333Z,98363.02
2022-11-24T15:04:26.554Z,98371.41
2022-11-24T15:07:07.312Z,98373.86
2022-11-24T15:09:52.559Z,98377.88
2022-11-24T15:12:38.321Z,98384.38
2022-11-24T15:15:20.619Z,98388.08
2022-11-24T15:17:58.315Z,98389.94
2022-11-24T15:20:37.729Z,98392.15
2022-11-24T15:23:24.855Z,98398.39
2022-11-24T15:25:54.796Z,98401.73
2022-11-24T15:28:28.182Z,98404.35
2022-11-24T15:31:01.871Z,98407.52
2022-11-24T15:33:33.866Z,98406.89
2022-11-24T15:36:02.723Z,98409.02
2022-11-24T15:38:31.389Z,98409.42
2022-11-24T15:41:02.277Z,98411.95
2022-11-24T15:43:36.934Z,98414.67
2022-11-24T15:46:09.083Z,98422.58
2022-11-24T15:48:38.987Z,98428.13
2022-11-24T15:51:14.729Z,98423.08
2022-11-24T15:53:46.451Z,98426.81
2022-11-24T15:56:45.319Z,98429.73
2022-11-24T15:59:20.737Z,98431.76
2022-11-24T16:01:51.100Z,98433.03
2022-11-24T16:04:20.257Z,98436.80
2022-11-24T16:06:49.407Z,98440.74
2022-11-24T16:09:18.318Z,98440.42
2022-11-24T16:11:47.239Z,98442.36
2022-11-24T16:14:16.043Z,98440.06
2022-11-24T16:16:45.117Z,98442.11
2022-11-24T16:19:16.249Z,98441.30
2022-11-24T16:21:48.446Z,98443.52
2022-11-24T16:24:17.058Z,98451.65
2022-11-24T16:26:45.741Z,98452.78
2022-11-24T16:29:14.714Z,98451.41
2022-11-24T16:31:44.866Z,98455.89
2022-11-24T16:34:13.666Z,98459.05
2022-11-24T16:36:42.435Z,98460.66
2022-11-24T16:39:11.339Z,98462.65
2022-11-24T16:41:40.136Z,98463.65
2022-11-24T16:44:09.099Z,98469.77
2022-11-24T16:46:37.782Z,98468.88
2022-11-24T16:49:06.475Z,98466.80
2022-11-24T16:51:35.878Z,98465.96
2022-11-24T16:54:04.768Z,98472.48
2022-11-24T16:56:33.505Z,98470.14
2022-11-24T16:59:02.646Z,98474.34
2022-11-24T17:01:33.182Z,98475.11
2022-11-24T17:04:02.354Z,98473.08
2022-11-24T17:06:33.711Z,98474.81
2022-11-24T17:09:02.419Z,98478.95
2022-11-24T17:11:31.524Z,98480.20
2022-11-24T17:14:01.081Z,98481.80
2022-11-24T17:16:30.297Z,98488.67
2022-11-24T17:18:59.096Z,98488.63
2022-11-24T17:21:28.605Z,98491.03
2022-11-24T17:24:05.604Z,98499.40
2022-11-24T17:26:35.815Z,98500.50
2022-11-24T17:29:04.794Z,98501.48
2022-11-24T17:31:36.064Z,98505.73
2022-11-24T17:34:06.735Z,98505.06
2022-11-24T17:36:35.626Z,98505.04
2022-11-24T17:39:06.168Z,98507.59
2022-11-24T17:41:35.596Z,98510.98
2022-11-24T17:44:05.021Z,98513.96
2022-11-24T17:46:33.945Z,98514.11
2022-11-24T17:49:03.623Z,98511.17
2022-11-24T17:51:32.375Z,98511.95
2022-11-24T17:54:06.025Z,98515.23
2022-11-24T17:56:49.126Z,98519.95
2022-11-24T17:59:18.081Z,98521.14
2022-11-24T18:01:47.068Z,98525.94
2022-11-24T18:04:30.731Z,98531.21
2022-11-24T18:07:22.592Z,98533.08
2022-11-24T18:10:17.785Z,98536.17
2022-11-24T18:13:06.588Z,98539.73
2022-11-24T18:16:01.035Z,98544.07
2022-11-24T18:19:07.259Z,98553.15
2022-11-24T18:22:06.553Z,98547.43
2022-11-24T18:24:54.238Z,98550.27
2022-11-24T18:28:06.074Z,98553.24
2022-11-24T18:30:56.179Z,98554.30
2022-11-24T18:33:56.867Z,98558.45
2022-11-24T18:36:52.668Z,98556.32
2022-11-24T18:39:47.506Z,98563.91
2022-11-24T18:45:39.777Z,98562.40
2022-11-24T18:48:25.342Z,98563.40
2022-11-24T18:50:55.727Z,98562.29
2022-11-24T18:53:26.617Z,98561.13
2022-11-24T18:56:00.459Z,98560.67
2022-11-24T18:58:31.478Z,98562.23
2022-11-24T19:01:08.327Z,98558.84
2022-11-24T19:03:44.934Z,98558.17
2022-11-24T19:06:20.620Z,98556.46
2022-11-24T19:08:53.924Z,98556.27
2022-11-24T19:11:35.599Z,98557.42
2022-11-24T19:14:06.235Z,98553.61
2022-11-24T19:16:35.943Z,98558.45
2022-11-24T19:19:05.320Z,98562.66
2022-11-24T19:21:38.317Z,98555.61
2022-11-24T19:24:10.423Z,98561.58
2022-11-24T19:26:40.054Z,98562.48
2022-11-24T19:29:09.067Z,98570.73
2022-11-24T19:31:39.888Z,98574.59
2022-11-24T19:34:08.986Z,98574.80
2022-11-24T19:36:37.750Z,98570.08
2022-11-24T19:39:07.237Z,98573.02
2022-11-24T19:41:36.518Z,98573.23
2022-11-24T19:44:05.460Z,98576.16
2022-11-24T19:46:34.571Z,98583.33
2022-11-24T19:49:04.687Z,98575.21
2022-11-24T19:51:35.217Z,98579.90
2022-11-24T19:54:06.124Z,98580.50
2022-11-24T19:56:37.199Z,98583.98
2022-11-24T19:59:07.216Z,98589.77
2022-11-24T20:01:39.285Z,98588.66
2022-11-24T20:04:12.945Z,98593.46
2022-11-24T20:06:45.001Z,98597.51
2022-11-24T20:09:18.710Z,98600.92
2022-11-24T20:11:48.945Z,98604.13
2022-11-24T20:14:22.377Z,98615.27
2022-11-24T20:16:51.185Z,98610.40
2022-11-24T20:19:20.213Z,98611.30
2022-11-24T20:21:50.917Z,98615.27
2022-11-24T20:24:22.236Z,98618.77
2022-11-24T20:26:59.405Z,98616.78
2022-11-24T20:29:29.480Z,98618.59
2022-11-24T20:31:58.203Z,98618.70
2022-11-24T20:34:27.741Z,98616.34
2022-11-24T20:36:56.481Z,98618.52
2022-11-24T20:39:28.048Z,98618.80
2022-11-24T20:41:57.587Z,98618.00
2022-11-24T20:44:27.746Z,98622.21
2022-11-24T20:47:00.206Z,98623.00
2022-11-24T20:49:29.118Z,98626.67
2022-11-24T20:51:57.842Z,98629.86
2022-11-24T20:54:27.082Z,98632.88
2022-11-24T20:56:56.046Z,98636.69
2022-11-24T20:59:26.212Z,98636.50
2022-11-24T21:01:59.730Z,98639.86
2022-11-24T21:04:28.727Z,98637.60
2022-11-24T21:06:57.828Z,98634.59
2022-11-24T21:09:28.218Z,98634.41
2022-11-24T21:11:56.993Z,98638.33
2022-11-24T21:14:25.591Z,98642.92
2022-11-24T21:16:54.780Z,98644.80
2022-11-24T21:19:23.576Z,98647.44
2022-11-24T21:21:52.167Z,98652.40
2022-11-24T21:24:22.082Z,98651.88
2022-11-24T21:26:52.998Z,98653.11
2022-11-24T21:29:23.878Z,98654.42
2022-11-24T21:31:53.033Z,98652.89
2022-11-24T21:34:22.040Z,98655.77
2022-11-24T21:36:51.672Z,98653.77
2022-11-24T21:39:20.633Z,98657.36
2022-11-24T21:41:49.403Z,98660.69
2022-11-24T21:44:18.519Z,98658.23
2022-11-24T21:46:52.603Z,98664.02
2022-11-24T21:49:25.211Z,98664.69
2022-11-24T21:51:56.254Z,98666.55
2022-11-24T21:54:25.102Z,98670.46
2022-11-24T21:56:54.700Z,98670.46
2022-11-24T21:59:23.728Z,98672.55
2022-11-24T22:01:52.522Z,98673.17
2022-11-24T22:04:21.544Z,98671.02
2022-11-24T22:06:52.609Z,98671.13
2022-11-24T22:09:21.147Z,98668.48
2022-11-24T22:11:50.125Z,98669.05
2022-11-24T22:14:19.100Z,98670.94
2022-11-24T22:16:47.770Z,98671.02
2022-11-24T22:19:16.628Z,98671.11
2022-11-24T22:21:45.784Z,98670.73
2022-11-24T22:24:14.411Z,98667.73
2022-11-24T22:26:43.068Z,98670.34
2022-11-24T22:29:12.082Z,98668.64
2022-11-24T22:31:40.752Z,98670.36
2022-11-24T22:34:09.463Z,98668.48
2022-11-24T22:36:38.351Z,98667.70
2022-11-24T22:39:07.164Z,98670.77
2022-11-24T22:41:36.549Z,98673.36
2022-11-24T22:44:05.493Z,98675.95
2022-11-24T22:46:34.395Z,98675.44
2022-11-24T22:49:03.838Z,98677.13
2022-11-24T22:51:35.205Z,98680.41
2022-11-24T22:54:06.154Z,98683.52
2022-11-24T22:56:34.907Z,98687.61
2022-11-24T22:59:04.919Z,98684.41
2022-11-24T23:01:34.534Z,98685.67
2022-11-24T23:04:04.274Z,98689.23
2022-11-24T23:06:34.055Z,98688.28
2022-11-24T23:09:05.391Z,98695.08
2022-11-24T23:11:39.992Z,98696.15
2022-11-24T23:14:14.383Z,98701.70
2022-11-24T23:16:43.888Z,98699.10
2022-11-24T23:19:12.949Z,98699.20
2022-11-24T23:21:41.918Z,98698.19
2022-11-24T23:24:11.253Z,98700.77
2022-11-24T23:26:41.731Z,98702.98
2022-11-24T23:29:11.215Z,98701.84
2022-11-24T23:31:43.076Z,98704.13
2022-11-24T23:34:12.466Z,98706.34
2022-11-24T23:36:40.941Z,98710.44
2022-11-24T23:39:12.811Z,98711.33
2022-11-24T23:41:42.020Z,98707.28
2022-11-24T23:44:10.670Z,98700.46
2022-11-24T23:46:39.521Z,98699.99
2022-11-24T23:49:08.461Z,98703.85
2022-11-24T23:51:38.336Z,98701.29
2022-11-24T23:54:08.912Z,98703.69
2022-11-24T23:56:38.213Z,98702.16
2022-11-24T23:59:06.896Z,98705.30
